sensor_id;sensor_type;location;lat;lon;timestamp;temperature;humidity
59007;DHT22;44792;52.760;6.726;2023-11-21T00:00:49;8.90;99.90
59007;DHT22;44792;52.760;6.726;2023-11-21T00:03:15;8.90;99.90
59007;DHT22;44792;52.760;6.726;2023-11-21T00:05:43;8.90;99.90
59007;DHT22;44792;52.760;6.726;2023-11-21T00:08:09;8.90;99.90
59007;DHT22;44792;52.760;6.726;2023-11-21T00:10:36;8.80;99.90
59007;DHT22;44792;52.760;6.726;2023-11-21T00:13:04;8.80;99.90
59007;DHT22;44792;52.760;6.726;2023-11-21T00:15:30;8.80;99.90
59007;DHT22;44792;52.760;6.726;2023-11-21T00:17:55;8.80;99.90
59007;DHT22;44792;52.760;6.726;2023-11-21T00:20:21;8.80;99.90
59007;DHT22;44792;52.760;6.726;2023-11-21T00:22:47;8.80;99.90
59007;DHT22;44792;52.760;6.726;2023-11-21T00:25:13;8.70;99.90
59007;DHT22;44792;52.760;6.726;2023-11-21T00:27:41;8.70;99.90
59007;DHT22;44792;52.760;6.726;2023-11-21T00:30:07;8.70;99.90
59007;DHT22;44792;52.760;6.726;2023-11-21T00:32:36;8.70;99.90
59007;DHT22;44792;52.760;6.726;2023-11-21T00:35:02;8.80;99.90
59007;DHT22;44792;52.760;6.726;2023-11-21T00:37:28;8.80;99.90
59007;DHT22;44792;52.760;6.726;2023-11-21T00:39:53;8.80;99.90
59007;DHT22;44792;52.760;6.726;2023-11-21T00:42:19;8.80;99.90
59007;DHT22;44792;52.760;6.726;2023-11-21T00:44:45;8.80;99.90
59007;DHT22;44792;52.760;6.726;2023-11-21T00:47:11;8.80;99.90
59007;DHT22;44792;52.760;6.726;2023-11-21T00:49:36;8.80;99.90
59007;DHT22;44792;52.760;6.726;2023-11-21T00:52:05;8.80;99.90
59007;DHT22;44792;52.760;6.726;2023-11-21T00:54:31;8.80;99.90
59007;DHT22;44792;52.760;6.726;2023-11-21T00:56:56;8.90;99.90
59007;DHT22;44792;52.760;6.726;2023-11-21T00:59:22;8.90;99.90
59007;DHT22;44792;52.760;6.726;2023-11-21T01:01:48;8.90;99.90
59007;DHT22;44792;52.760;6.726;2023-11-21T01:04:14;8.90;99.90
59007;DHT22;44792;52.760;6.726;2023-11-21T01:06:40;9.00;99.90
59007;DHT22;44792;52.760;6.726;2023-11-21T01:09:05;8.90;99.90
59007;DHT22;44792;52.760;6.726;2023-11-21T01:11:35;9.00;99.90
59007;DHT22;44792;52.760;6.726;2023-11-21T01:14:06;9.00;99.90
59007;DHT22;44792;52.760;6.726;2023-11-21T01:16:34;9.00;99.90
59007;DHT22;44792;52.760;6.726;2023-11-21T01:19:00;9.00;99.90
59007;DHT22;44792;52.760;6.726;2023-11-21T01:21:26;9.00;99.90
59007;DHT22;44792;52.760;6.726;2023-11-21T01:23:53;9.00;99.90
59007;DHT22;44792;52.760;6.726;2023-11-21T01:26:20;9.00;99.90
59007;DHT22;44792;52.760;6.726;2023-11-21T01:28:46;9.10;99.90
59007;DHT22;44792;52.760;6.726;2023-11-21T01:31:14;9.00;99.90
59007;DHT22;44792;52.760;6.726;2023-11-21T01:33:40;9.00;99.90
59007;DHT22;44792;52.760;6.726;2023-11-21T01:36:06;9.10;99.90
59007;DHT22;44792;52.760;6.726;2023-11-21T01:38:32;9.00;99.90
59007;DHT22;44792;52.760;6.726;2023-11-21T01:40:58;9.00;99.90
59007;DHT22;44792;52.760;6.726;2023-11-21T01:43:26;9.10;99.90
59007;DHT22;44792;52.760;6.726;2023-11-21T01:45:55;9.10;99.90
59007;DHT22;44792;52.760;6.726;2023-11-21T01:48:24;9.10;99.90
59007;DHT22;44792;52.760;6.726;2023-11-21T01:50:51;9.10;99.90
59007;DHT22;44792;52.760;6.726;2023-11-21T01:53:17;9.20;99.90
59007;DHT22;44792;52.760;6.726;2023-11-21T01:55:45;9.10;99.90
59007;DHT22;44792;52.760;6.726;2023-11-21T01:58:11;9.20;99.90
59007;DHT22;44792;52.760;6.726;2023-11-21T02:00:38;9.20;99.90
59007;DHT22;44792;52.760;6.726;2023-11-21T02:03:04;9.20;99.90
59007;DHT22;44792;52.760;6.726;2023-11-21T02:05:30;9.10;99.90
59007;DHT22;44792;52.760;6.726;2023-11-21T02:07:55;9.20;99.90
59007;DHT22;44792;52.760;6.726;2023-11-21T02:10:22;9.20;99.90
59007;DHT22;44792;52.760;6.726;2023-11-21T02:12:49;9.20;99.90
59007;DHT22;44792;52.760;6.726;2023-11-21T02:15:18;9.20;99.90
59007;DHT22;44792;52.760;6.726;2023-11-21T02:17:49;9.20;99.90
59007;DHT22;44792;52.760;6.726;2023-11-21T02:20:22;9.20;99.90
59007;DHT22;44792;52.760;6.726;2023-11-21T02:22:51;9.20;99.90
59007;DHT22;44792;52.760;6.726;2023-11-21T02:25:30;9.20;99.90
59007;DHT22;44792;52.760;6.726;2023-11-21T02:27:57;9.10;99.90
59007;DHT22;44792;52.760;6.726;2023-11-21T02:30:23;9.10;99.90
59007;DHT22;44792;52.760;6.726;2023-11-21T02:32:51;9.20;99.90
59007;DHT22;44792;52.760;6.726;2023-11-21T02:35:20;9.20;99.90
59007;DHT22;44792;52.760;6.726;2023-11-21T02:37:50;9.20;99.90
59007;DHT22;44792;52.760;6.726;2023-11-21T02:40:15;9.20;99.90
59007;DHT22;44792;52.760;6.726;2023-11-21T02:42:46;9.20;99.90
59007;DHT22;44792;52.760;6.726;2023-11-21T02:45:14;9.30;99.90
59007;DHT22;44792;52.760;6.726;2023-11-21T02:47:45;9.30;99.90
59007;DHT22;44792;52.760;6.726;2023-11-21T02:50:11;9.30;99.90
59007;DHT22;44792;52.760;6.726;2023-11-21T02:52:37;9.30;99.90
59007;DHT22;44792;52.760;6.726;2023-11-21T02:55:03;9.30;99.90
59007;DHT22;44792;52.760;6.726;2023-11-21T02:57:29;9.30;99.90
59007;DHT22;44792;52.760;6.726;2023-11-21T02:59:55;9.40;99.90
59007;DHT22;44792;52.760;6.726;2023-11-21T03:02:21;9.40;99.90
59007;DHT22;44792;52.760;6.726;2023-11-21T03:04:47;9.30;99.90
59007;DHT22;44792;52.760;6.726;2023-11-21T03:07:15;9.30;99.90
59007;DHT22;44792;52.760;6.726;2023-11-21T03:09:40;9.30;99.90
59007;DHT22;44792;52.760;6.726;2023-11-21T03:12:06;9.30;99.90
59007;DHT22;44792;52.760;6.726;2023-11-21T03:14:32;9.30;99.90
59007;DHT22;44792;52.760;6.726;2023-11-21T03:16:58;9.30;99.90
59007;DHT22;44792;52.760;6.726;2023-11-21T03:19:23;9.30;99.90
59007;DHT22;44792;52.760;6.726;2023-11-21T03:21:49;9.30;99.90
59007;DHT22;44792;52.760;6.726;2023-11-21T03:24:15;9.30;99.90
59007;DHT22;44792;52.760;6.726;2023-11-21T03:26:45;9.30;99.90
59007;DHT22;44792;52.760;6.726;2023-11-21T03:29:12;9.30;99.90
59007;DHT22;44792;52.760;6.726;2023-11-21T03:31:38;9.30;99.90
59007;DHT22;44792;52.760;6.726;2023-11-21T03:34:03;9.30;99.90
59007;DHT22;44792;52.760;6.726;2023-11-21T03:36:29;9.30;99.90
59007;DHT22;44792;52.760;6.726;2023-11-21T03:38:55;9.40;99.90
59007;DHT22;44792;52.760;6.726;2023-11-21T03:41:21;9.30;99.90
59007;DHT22;44792;52.760;6.726;2023-11-21T03:43:46;9.40;99.90
59007;DHT22;44792;52.760;6.726;2023-11-21T03:46:12;9.40;99.90
59007;DHT22;44792;52.760;6.726;2023-11-21T03:48:38;9.40;99.90
59007;DHT22;44792;52.760;6.726;2023-11-21T03:51:04;9.40;99.90
59007;DHT22;44792;52.760;6.726;2023-11-21T03:53:30;9.40;99.90
59007;DHT22;44792;52.760;6.726;2023-11-21T03:55:57;9.40;99.90
59007;DHT22;44792;52.760;6.726;2023-11-21T03:58:22;9.30;99.90
59007;DHT22;44792;52.760;6.726;2023-11-21T04:00:48;9.40;99.90
59007;DHT22;44792;52.760;6.726;2023-11-21T04:03:17;9.40;99.90
59007;DHT22;44792;52.760;6.726;2023-11-21T04:05:42;9.30;99.90
59007;DHT22;44792;52.760;6.726;2023-11-21T04:08:08;9.30;99.90
59007;DHT22;44792;52.760;6.726;2023-11-21T04:10:34;9.30;99.90
59007;DHT22;44792;52.760;6.726;2023-11-21T04:13:00;9.30;99.90
59007;DHT22;44792;52.760;6.726;2023-11-21T04:15:25;9.30;99.90
59007;DHT22;44792;52.760;6.726;2023-11-21T04:17:51;9.40;99.90
59007;DHT22;44792;52.760;6.726;2023-11-21T04:20:17;9.30;99.90
59007;DHT22;44792;52.760;6.726;2023-11-21T04:22:44;9.30;99.90
59007;DHT22;44792;52.760;6.726;2023-11-21T04:25:15;9.30;99.90
59007;DHT22;44792;52.760;6.726;2023-11-21T04:27:41;9.40;99.90
59007;DHT22;44792;52.760;6.726;2023-11-21T04:30:09;9.30;99.90
59007;DHT22;44792;52.760;6.726;2023-11-21T04:32:35;9.30;99.90
59007;DHT22;44792;52.760;6.726;2023-11-21T04:35:01;9.30;99.90
59007;DHT22;44792;52.760;6.726;2023-11-21T04:37:27;9.30;99.90
59007;DHT22;44792;52.760;6.726;2023-11-21T04:39:53;9.30;99.90
59007;DHT22;44792;52.760;6.726;2023-11-21T04:42:18;9.30;99.90
59007;DHT22;44792;52.760;6.726;2023-11-21T04:44:44;9.30;99.90
59007;DHT22;44792;52.760;6.726;2023-11-21T04:47:10;9.30;99.90
59007;DHT22;44792;52.760;6.726;2023-11-21T04:49:36;9.30;99.90
59007;DHT22;44792;52.760;6.726;2023-11-21T04:52:02;9.30;99.90
59007;DHT22;44792;52.760;6.726;2023-11-21T04:54:30;9.30;99.90
59007;DHT22;44792;52.760;6.726;2023-11-21T04:56:56;9.30;99.90
59007;DHT22;44792;52.760;6.726;2023-11-21T04:59:22;9.30;99.90
59007;DHT22;44792;52.760;6.726;2023-11-21T05:01:50;9.20;99.90
59007;DHT22;44792;52.760;6.726;2023-11-21T05:04:16;9.20;99.90
59007;DHT22;44792;52.760;6.726;2023-11-21T05:06:41;9.20;99.90
59007;DHT22;44792;52.760;6.726;2023-11-21T05:09:07;9.20;99.90
59007;DHT22;44792;52.760;6.726;2023-11-21T05:11:37;9.20;99.90
59007;DHT22;44792;52.760;6.726;2023-11-21T05:14:03;9.20;99.90
59007;DHT22;44792;52.760;6.726;2023-11-21T05:16:33;9.20;99.90
59007;DHT22;44792;52.760;6.726;2023-11-21T05:19:00;9.20;99.90
59007;DHT22;44792;52.760;6.726;2023-11-21T05:21:27;9.20;99.90
59007;DHT22;44792;52.760;6.726;2023-11-21T05:23:53;9.20;99.90
59007;DHT22;44792;52.760;6.726;2023-11-21T05:26:19;9.20;99.90
59007;DHT22;44792;52.760;6.726;2023-11-21T05:28:44;9.20;99.90
59007;DHT22;44792;52.760;6.726;2023-11-21T05:31:10;9.20;99.90
59007;DHT22;44792;52.760;6.726;2023-11-21T05:33:36;9.10;99.90
59007;DHT22;44792;52.760;6.726;2023-11-21T05:36:02;9.10;99.90
59007;DHT22;44792;52.760;6.726;2023-11-21T05:38:28;9.20;99.90
59007;DHT22;44792;52.760;6.726;2023-11-21T05:40:55;9.10;99.90
59007;DHT22;44792;52.760;6.726;2023-11-21T05:43:20;9.20;99.90
59007;DHT22;44792;52.760;6.726;2023-11-21T05:45:46;9.20;99.90
59007;DHT22;44792;52.760;6.726;2023-11-21T05:48:12;9.20;99.90
59007;DHT22;44792;52.760;6.726;2023-11-21T05:50:38;9.20;99.90
59007;DHT22;44792;52.760;6.726;2023-11-21T05:53:04;9.20;99.90
59007;DHT22;44792;52.760;6.726;2023-11-21T05:55:29;9.20;99.90
59007;DHT22;44792;52.760;6.726;2023-11-21T05:57:55;9.20;99.90
59007;DHT22;44792;52.760;6.726;2023-11-21T06:00:21;9.20;99.90
59007;DHT22;44792;52.760;6.726;2023-11-21T06:02:54;9.20;99.90
59007;DHT22;44792;52.760;6.726;2023-11-21T06:05:21;9.20;99.90
59007;DHT22;44792;52.760;6.726;2023-11-21T06:07:49;9.20;99.90
59007;DHT22;44792;52.760;6.726;2023-11-21T06:10:15;9.20;99.90
59007;DHT22;44792;52.760;6.726;2023-11-21T06:12:43;9.20;99.90
59007;DHT22;44792;52.760;6.726;2023-11-21T06:15:10;9.20;99.90
59007;DHT22;44792;52.760;6.726;2023-11-21T06:17:39;9.20;99.90
59007;DHT22;44792;52.760;6.726;2023-11-21T06:20:07;9.30;99.90
59007;DHT22;44792;52.760;6.726;2023-11-21T06:22:41;9.30;99.90
59007;DHT22;44792;52.760;6.726;2023-11-21T06:25:07;9.30;99.90
59007;DHT22;44792;52.760;6.726;2023-11-21T06:27:44;9.30;99.90
59007;DHT22;44792;52.760;6.726;2023-11-21T06:30:11;9.30;99.90
59007;DHT22;44792;52.760;6.726;2023-11-21T06:32:38;9.30;99.90
59007;DHT22;44792;52.760;6.726;2023-11-21T06:35:06;9.30;99.90
59007;DHT22;44792;52.760;6.726;2023-11-21T06:37:32;9.20;99.90
59007;DHT22;44792;52.760;6.726;2023-11-21T06:39:59;9.30;99.90
59007;DHT22;44792;52.760;6.726;2023-11-21T06:42:26;9.30;99.90
59007;DHT22;44792;52.760;6.726;2023-11-21T06:44:52;9.30;99.90
59007;DHT22;44792;52.760;6.726;2023-11-21T06:47:19;9.30;99.90
59007;DHT22;44792;52.760;6.726;2023-11-21T06:49:46;9.30;99.90
59007;DHT22;44792;52.760;6.726;2023-11-21T06:52:13;9.30;99.90
59007;DHT22;44792;52.760;6.726;2023-11-21T06:54:39;9.30;99.90
59007;DHT22;44792;52.760;6.726;2023-11-21T06:57:05;9.30;99.90
59007;DHT22;44792;52.760;6.726;2023-11-21T06:59:31;9.30;99.90
59007;DHT22;44792;52.760;6.726;2023-11-21T07:01:57;9.30;99.90
59007;DHT22;44792;52.760;6.726;2023-11-21T07:04:23;9.30;99.90
59007;DHT22;44792;52.760;6.726;2023-11-21T07:06:54;9.30;99.90
59007;DHT22;44792;52.760;6.726;2023-11-21T07:09:20;9.30;99.90
59007;DHT22;44792;52.760;6.726;2023-11-21T07:11:50;9.30;99.90
59007;DHT22;44792;52.760;6.726;2023-11-21T07:14:16;9.30;99.90
59007;DHT22;44792;52.760;6.726;2023-11-21T07:16:42;9.30;99.90
59007;DHT22;44792;52.760;6.726;2023-11-21T07:19:08;9.20;99.90
59007;DHT22;44792;52.760;6.726;2023-11-21T07:21:35;9.40;99.90
59007;DHT22;44792;52.760;6.726;2023-11-21T07:24:02;9.40;99.90
59007;DHT22;44792;52.760;6.726;2023-11-21T07:26:28;9.40;99.90
59007;DHT22;44792;52.760;6.726;2023-11-21T07:28:54;9.40;99.90
59007;DHT22;44792;52.760;6.726;2023-11-21T07:31:20;9.40;99.90
59007;DHT22;44792;52.760;6.726;2023-11-21T07:33:46;9.40;99.90
59007;DHT22;44792;52.760;6.726;2023-11-21T07:36:15;9.40;99.90
59007;DHT22;44792;52.760;6.726;2023-11-21T07:38:44;9.40;99.90
59007;DHT22;44792;52.760;6.726;2023-11-21T07:41:11;9.40;99.90
59007;DHT22;44792;52.760;6.726;2023-11-21T07:43:37;9.40;99.90
59007;DHT22;44792;52.760;6.726;2023-11-21T07:46:03;9.40;99.90
59007;DHT22;44792;52.760;6.726;2023-11-21T07:48:32;9.40;99.90
59007;DHT22;44792;52.760;6.726;2023-11-21T07:50:58;9.40;99.90
59007;DHT22;44792;52.760;6.726;2023-11-21T07:53:27;9.40;99.90
59007;DHT22;44792;52.760;6.726;2023-11-21T07:55:56;9.40;99.90
59007;DHT22;44792;52.760;6.726;2023-11-21T07:58:22;9.40;99.90
59007;DHT22;44792;52.760;6.726;2023-11-21T08:00:49;9.40;99.90
59007;DHT22;44792;52.760;6.726;2023-11-21T08:03:16;9.40;99.90
59007;DHT22;44792;52.760;6.726;2023-11-21T08:05:42;9.50;99.90
59007;DHT22;44792;52.760;6.726;2023-11-21T08:08:08;9.50;99.90
59007;DHT22;44792;52.760;6.726;2023-11-21T08:10:34;9.50;99.90
59007;DHT22;44792;52.760;6.726;2023-11-21T08:13:01;9.50;99.90
59007;DHT22;44792;52.760;6.726;2023-11-21T08:15:27;9.60;99.90
59007;DHT22;44792;52.760;6.726;2023-11-21T08:17:53;9.60;99.90
59007;DHT22;44792;52.760;6.726;2023-11-21T08:20:19;9.60;99.90
59007;DHT22;44792;52.760;6.726;2023-11-21T08:22:45;9.60;99.90
59007;DHT22;44792;52.760;6.726;2023-11-21T08:25:13;9.60;99.90
59007;DHT22;44792;52.760;6.726;2023-11-21T08:27:38;9.60;99.90
59007;DHT22;44792;52.760;6.726;2023-11-21T08:30:04;9.70;99.90
59007;DHT22;44792;52.760;6.726;2023-11-21T08:32:30;9.60;99.90
59007;DHT22;44792;52.760;6.726;2023-11-21T08:34:58;9.70;99.90
59007;DHT22;44792;52.760;6.726;2023-11-21T08:37:25;9.70;99.90
59007;DHT22;44792;52.760;6.726;2023-11-21T08:39:53;9.70;99.90
59007;DHT22;44792;52.760;6.726;2023-11-21T08:42:19;9.70;99.90
59007;DHT22;44792;52.760;6.726;2023-11-21T08:44:45;9.80;99.90
59007;DHT22;44792;52.760;6.726;2023-11-21T08:47:11;9.80;99.90
59007;DHT22;44792;52.760;6.726;2023-11-21T08:49:37;9.80;99.90
59007;DHT22;44792;52.760;6.726;2023-11-21T08:52:03;9.80;99.90
59007;DHT22;44792;52.760;6.726;2023-11-21T08:54:31;9.80;99.90
59007;DHT22;44792;52.760;6.726;2023-11-21T08:56:57;9.80;99.90
59007;DHT22;44792;52.760;6.726;2023-11-21T08:59:24;9.80;99.90
59007;DHT22;44792;52.760;6.726;2023-11-21T09:01:50;9.80;99.90
59007;DHT22;44792;52.760;6.726;2023-11-21T09:04:16;9.80;99.90
59007;DHT22;44792;52.760;6.726;2023-11-21T09:06:42;9.80;99.90
59007;DHT22;44792;52.760;6.726;2023-11-21T09:09:07;9.70;99.90
59007;DHT22;44792;52.760;6.726;2023-11-21T09:11:36;9.60;99.90
59007;DHT22;44792;52.760;6.726;2023-11-21T09:14:02;9.60;99.90
59007;DHT22;44792;52.760;6.726;2023-11-21T09:16:29;9.60;99.90
59007;DHT22;44792;52.760;6.726;2023-11-21T09:18:55;9.60;99.90
59007;DHT22;44792;52.760;6.726;2023-11-21T09:21:21;9.50;99.90
59007;DHT22;44792;52.760;6.726;2023-11-21T09:23:47;9.50;99.90
59007;DHT22;44792;52.760;6.726;2023-11-21T09:26:13;9.40;99.90
59007;DHT22;44792;52.760;6.726;2023-11-21T09:28:42;9.40;99.90
59007;DHT22;44792;52.760;6.726;2023-11-21T09:31:11;9.40;99.90
59007;DHT22;44792;52.760;6.726;2023-11-21T09:33:37;9.50;99.90
59007;DHT22;44792;52.760;6.726;2023-11-21T09:36:04;9.40;99.90
59007;DHT22;44792;52.760;6.726;2023-11-21T09:38:31;9.40;99.90
59007;DHT22;44792;52.760;6.726;2023-11-21T09:40:57;9.40;99.90
59007;DHT22;44792;52.760;6.726;2023-11-21T09:43:25;9.30;99.90
59007;DHT22;44792;52.760;6.726;2023-11-21T09:46:00;9.30;99.90
59007;DHT22;44792;52.760;6.726;2023-11-21T09:48:27;9.30;99.90
59007;DHT22;44792;52.760;6.726;2023-11-21T09:50:54;9.30;99.90
59007;DHT22;44792;52.760;6.726;2023-11-21T09:53:21;9.30;99.90
59007;DHT22;44792;52.760;6.726;2023-11-21T09:55:48;9.30;99.90
59007;DHT22;44792;52.760;6.726;2023-11-21T09:58:16;9.30;99.90
59007;DHT22;44792;52.760;6.726;2023-11-21T10:00:47;9.30;99.90
59007;DHT22;44792;52.760;6.726;2023-11-21T10:03:14;9.30;99.90
59007;DHT22;44792;52.760;6.726;2023-11-21T10:05:42;9.20;99.90
59007;DHT22;44792;52.760;6.726;2023-11-21T10:08:09;9.20;99.90
59007;DHT22;44792;52.760;6.726;2023-11-21T10:10:45;9.20;99.90
59007;DHT22;44792;52.760;6.726;2023-11-21T10:13:13;9.20;99.90
59007;DHT22;44792;52.760;6.726;2023-11-21T10:15:42;9.20;99.90
59007;DHT22;44792;52.760;6.726;2023-11-21T10:18:14;9.20;99.90
59007;DHT22;44792;52.760;6.726;2023-11-21T10:20:44;9.30;99.90
59007;DHT22;44792;52.760;6.726;2023-11-21T10:23:21;9.20;99.90
59007;DHT22;44792;52.760;6.726;2023-11-21T10:25:47;9.20;99.90
59007;DHT22;44792;52.760;6.726;2023-11-21T10:28:15;9.20;99.90
59007;DHT22;44792;52.760;6.726;2023-11-21T10:30:41;9.20;99.90
59007;DHT22;44792;52.760;6.726;2023-11-21T10:33:07;9.20;99.90
59007;DHT22;44792;52.760;6.726;2023-11-21T10:35:47;9.10;99.90
59007;DHT22;44792;52.760;6.726;2023-11-21T10:38:17;9.10;99.90
59007;DHT22;44792;52.760;6.726;2023-11-21T10:40:43;9.00;99.90
59007;DHT22;44792;52.760;6.726;2023-11-21T10:43:10;9.00;99.90
59007;DHT22;44792;52.760;6.726;2023-11-21T10:45:38;9.00;99.90
59007;DHT22;44792;52.760;6.726;2023-11-21T10:48:09;9.10;99.90
59007;DHT22;44792;52.760;6.726;2023-11-21T10:50:37;9.10;99.90
59007;DHT22;44792;52.760;6.726;2023-11-21T10:53:03;9.00;99.90
59007;DHT22;44792;52.760;6.726;2023-11-21T10:55:30;9.10;99.90
59007;DHT22;44792;52.760;6.726;2023-11-21T10:57:59;9.10;99.90
59007;DHT22;44792;52.760;6.726;2023-11-21T11:00:29;9.10;99.90
59007;DHT22;44792;52.760;6.726;2023-11-21T11:02:55;9.10;99.90
59007;DHT22;44792;52.760;6.726;2023-11-21T11:05:22;9.20;99.90
59007;DHT22;44792;52.760;6.726;2023-11-21T11:07:56;9.10;99.90
59007;DHT22;44792;52.760;6.726;2023-11-21T11:10:26;9.10;99.90
59007;DHT22;44792;52.760;6.726;2023-11-21T11:12:53;9.10;99.90
59007;DHT22;44792;52.760;6.726;2023-11-21T11:15:20;9.10;99.90
59007;DHT22;44792;52.760;6.726;2023-11-21T11:17:46;9.10;99.90
59007;DHT22;44792;52.760;6.726;2023-11-21T11:20:14;9.10;99.90
59007;DHT22;44792;52.760;6.726;2023-11-21T11:22:50;9.20;99.90
59007;DHT22;44792;52.760;6.726;2023-11-21T11:28:21;9.10;99.90
59007;DHT22;44792;52.760;6.726;2023-11-21T11:36:10;9.10;99.90
59007;DHT22;44792;52.760;6.726;2023-11-21T11:38:39;9.10;99.90
59007;DHT22;44792;52.760;6.726;2023-11-21T11:41:06;9.20;99.90
59007;DHT22;44792;52.760;6.726;2023-11-21T11:43:32;9.20;99.90
59007;DHT22;44792;52.760;6.726;2023-11-21T11:46:03;9.20;99.90
59007;DHT22;44792;52.760;6.726;2023-11-21T11:48:29;9.20;99.90
59007;DHT22;44792;52.760;6.726;2023-11-21T11:51:05;9.10;99.90
59007;DHT22;44792;52.760;6.726;2023-11-21T11:53:45;9.20;99.90
59007;DHT22;44792;52.760;6.726;2023-11-21T11:56:33;9.10;99.90
59007;DHT22;44792;52.760;6.726;2023-11-21T11:59:04;9.10;99.90
59007;DHT22;44792;52.760;6.726;2023-11-21T12:01:34;9.10;99.90
59007;DHT22;44792;52.760;6.726;2023-11-21T12:06:57;9.10;99.90
59007;DHT22;44792;52.760;6.726;2023-11-21T12:09:25;9.10;99.90
59007;DHT22;44792;52.760;6.726;2023-11-21T12:11:52;9.10;99.90
59007;DHT22;44792;52.760;6.726;2023-11-21T12:14:18;9.10;99.90
59007;DHT22;44792;52.760;6.726;2023-11-21T12:16:45;9.20;99.90
59007;DHT22;44792;52.760;6.726;2023-11-21T12:19:11;9.10;99.90
59007;DHT22;44792;52.760;6.726;2023-11-21T12:21:37;9.20;99.90
59007;DHT22;44792;52.760;6.726;2023-11-21T12:24:04;9.20;99.90
59007;DHT22;44792;52.760;6.726;2023-11-21T12:26:29;9.20;99.90
59007;DHT22;44792;52.760;6.726;2023-11-21T12:28:55;9.20;99.90
59007;DHT22;44792;52.760;6.726;2023-11-21T12:31:22;9.20;99.90
59007;DHT22;44792;52.760;6.726;2023-11-21T12:33:48;9.20;99.90
59007;DHT22;44792;52.760;6.726;2023-11-21T12:36:13;9.10;99.90
59007;DHT22;44792;52.760;6.726;2023-11-21T12:38:39;9.10;99.90
59007;DHT22;44792;52.760;6.726;2023-11-21T12:41:06;9.10;99.90
59007;DHT22;44792;52.760;6.726;2023-11-21T12:43:32;9.00;99.90
59007;DHT22;44792;52.760;6.726;2023-11-21T12:46:10;9.00;99.90
59007;DHT22;44792;52.760;6.726;2023-11-21T12:48:44;9.00;99.90
59007;DHT22;44792;52.760;6.726;2023-11-21T12:51:11;9.10;99.90
59007;DHT22;44792;52.760;6.726;2023-11-21T12:53:40;9.10;99.90
59007;DHT22;44792;52.760;6.726;2023-11-21T12:56:10;9.10;99.90
59007;DHT22;44792;52.760;6.726;2023-11-21T12:58:40;9.00;99.90
59007;DHT22;44792;52.760;6.726;2023-11-21T13:01:10;9.10;99.90
59007;DHT22;44792;52.760;6.726;2023-11-21T13:03:40;9.00;99.90
59007;DHT22;44792;52.760;6.726;2023-11-21T13:06:07;9.00;99.90
59007;DHT22;44792;52.760;6.726;2023-11-21T13:08:35;9.10;99.90
59007;DHT22;44792;52.760;6.726;2023-11-21T13:11:05;9.10;99.90
59007;DHT22;44792;52.760;6.726;2023-11-21T13:13:31;9.00;99.90
59007;DHT22;44792;52.760;6.726;2023-11-21T13:16:02;9.00;99.90
59007;DHT22;44792;52.760;6.726;2023-11-21T13:18:31;9.00;99.90
59007;DHT22;44792;52.760;6.726;2023-11-21T13:21:02;9.00;99.90
59007;DHT22;44792;52.760;6.726;2023-11-21T15:40:44;8.40;99.90
59007;DHT22;44792;52.760;6.726;2023-11-21T15:43:11;8.40;99.90
59007;DHT22;44792;52.760;6.726;2023-11-21T15:45:39;8.40;99.90
59007;DHT22;44792;52.760;6.726;2023-11-21T15:48:05;8.40;99.90
59007;DHT22;44792;52.760;6.726;2023-11-21T15:50:31;8.40;99.90
59007;DHT22;44792;52.760;6.726;2023-11-21T15:52:57;8.20;99.90
59007;DHT22;44792;52.760;6.726;2023-11-21T15:55:24;8.30;99.90
59007;DHT22;44792;52.760;6.726;2023-11-21T15:57:50;8.30;99.90
59007;DHT22;44792;52.760;6.726;2023-11-21T16:00:16;8.30;99.90
59007;DHT22;44792;52.760;6.726;2023-11-21T16:02:45;8.40;99.90
59007;DHT22;44792;52.760;6.726;2023-11-21T16:05:11;8.30;99.90
59007;DHT22;44792;52.760;6.726;2023-11-21T16:07:43;8.30;99.90
59007;DHT22;44792;52.760;6.726;2023-11-21T16:10:10;8.30;99.90
59007;DHT22;44792;52.760;6.726;2023-11-21T16:12:38;8.20;99.90
59007;DHT22;44792;52.760;6.726;2023-11-21T16:15:06;8.20;99.90
59007;DHT22;44792;52.760;6.726;2023-11-21T16:17:35;8.20;99.90
59007;DHT22;44792;52.760;6.726;2023-11-21T16:20:03;8.20;99.90
59007;DHT22;44792;52.760;6.726;2023-11-21T16:22:32;8.10;99.90
59007;DHT22;44792;52.760;6.726;2023-11-21T16:24:59;8.10;99.90
59007;DHT22;44792;52.760;6.726;2023-11-21T16:27:26;8.00;99.90
59007;DHT22;44792;52.760;6.726;2023-11-21T16:29:51;8.00;99.90
59007;DHT22;44792;52.760;6.726;2023-11-21T16:32:17;8.00;99.90
59007;DHT22;44792;52.760;6.726;2023-11-21T16:34:43;7.90;99.90
59007;DHT22;44792;52.760;6.726;2023-11-21T16:37:10;7.80;99.90
59007;DHT22;44792;52.760;6.726;2023-11-21T16:39:36;7.80;99.90
59007;DHT22;44792;52.760;6.726;2023-11-21T16:42:04;7.90;99.90
59007;DHT22;44792;52.760;6.726;2023-11-21T16:44:29;7.80;99.90
59007;DHT22;44792;52.760;6.726;2023-11-21T16:46:55;7.70;99.90
59007;DHT22;44792;52.760;6.726;2023-11-21T16:49:33;7.70;99.90
59007;DHT22;44792;52.760;6.726;2023-11-21T16:51:59;7.70;99.90
59007;DHT22;44792;52.760;6.726;2023-11-21T16:54:26;7.60;99.90
59007;DHT22;44792;52.760;6.726;2023-11-21T16:56:53;7.60;99.90
59007;DHT22;44792;52.760;6.726;2023-11-21T16:59:19;7.60;99.90
59007;DHT22;44792;52.760;6.726;2023-11-21T17:01:46;7.60;99.90
59007;DHT22;44792;52.760;6.726;2023-11-21T17:04:12;7.50;99.90
59007;DHT22;44792;52.760;6.726;2023-11-21T17:06:41;7.50;99.90
59007;DHT22;44792;52.760;6.726;2023-11-21T17:09:07;7.50;99.90
59007;DHT22;44792;52.760;6.726;2023-11-21T17:11:38;7.40;99.90
59007;DHT22;44792;52.760;6.726;2023-11-21T17:14:08;7.40;99.90
59007;DHT22;44792;52.760;6.726;2023-11-21T17:16:34;7.30;99.90
59007;DHT22;44792;52.760;6.726;2023-11-21T17:19:05;7.30;99.90
59007;DHT22;44792;52.760;6.726;2023-11-21T17:21:31;7.20;99.90
59007;DHT22;44792;52.760;6.726;2023-11-21T17:23:58;7.20;99.90
59007;DHT22;44792;52.760;6.726;2023-11-21T17:26:23;7.10;99.90
59007;DHT22;44792;52.760;6.726;2023-11-21T17:28:49;7.20;99.90
59007;DHT22;44792;52.760;6.726;2023-11-21T17:31:16;7.20;99.90
59007;DHT22;44792;52.760;6.726;2023-11-21T17:33:43;7.10;99.90
59007;DHT22;44792;52.760;6.726;2023-11-21T17:36:09;7.00;99.90
59007;DHT22;44792;52.760;6.726;2023-11-21T17:38:37;7.10;99.90
59007;DHT22;44792;52.760;6.726;2023-11-21T17:41:03;7.10;99.90
59007;DHT22;44792;52.760;6.726;2023-11-21T17:43:29;6.90;99.90
59007;DHT22;44792;52.760;6.726;2023-11-21T17:45:57;6.90;99.90
59007;DHT22;44792;52.760;6.726;2023-11-21T17:48:23;6.90;99.90
59007;DHT22;44792;52.760;6.726;2023-11-21T17:50:53;6.90;99.90
59007;DHT22;44792;52.760;6.726;2023-11-21T17:53:18;6.90;99.90
59007;DHT22;44792;52.760;6.726;2023-11-21T17:55:44;6.90;99.90
59007;DHT22;44792;52.760;6.726;2023-11-21T17:58:10;6.90;99.90
59007;DHT22;44792;52.760;6.726;2023-11-21T18:00:38;6.90;99.90
59007;DHT22;44792;52.760;6.726;2023-11-21T18:03:04;6.90;99.90
59007;DHT22;44792;52.760;6.726;2023-11-21T18:05:30;6.80;99.90
59007;DHT22;44792;52.760;6.726;2023-11-21T18:07:56;6.70;99.90
59007;DHT22;44792;52.760;6.726;2023-11-21T18:10:21;6.80;99.90
59007;DHT22;44792;52.760;6.726;2023-11-21T18:12:47;6.80;99.90